sensor_id;sensor_type;location;lat;lon;timestamp;P1;durP1;ratioP1;P2;durP2;ratioP2
9737;SDS011;4908;47.446;13.900;2023-07-29T00:01:54;3.07;;;2.40;;
9737;SDS011;4908;47.446;13.900;2023-07-29T00:04:21;2.27;;;2.17;;
9737;SDS011;4908;47.446;13.900;2023-07-29T00:06:48;2.50;;;2.30;;
9737;SDS011;4908;47.446;13.900;2023-07-29T00:09:17;2.10;;;2.00;;
9737;SDS011;4908;47.446;13.900;2023-07-29T00:11:44;2.37;;;2.20;;
9737;SDS011;4908;47.446;13.900;2023-07-29T00:14:11;2.70;;;2.50;;
9737;SDS011;4908;47.446;13.900;2023-07-29T00:16:38;2.10;;;2.00;;
9737;SDS011;4908;47.446;13.900;2023-07-29T00:19:05;2.17;;;2.07;;
9737;SDS011;4908;47.446;13.900;2023-07-29T00:21:33;2.00;;;1.90;;
9737;SDS011;4908;47.446;13.900;2023-07-29T00:24:01;2.00;;;1.90;;
9737;SDS011;4908;47.446;13.900;2023-07-29T00:26:29;2.37;;;2.17;;
9737;SDS011;4908;47.446;13.900;2023-07-29T00:28:57;2.00;;;1.90;;
9737;SDS011;4908;47.446;13.900;2023-07-29T00:31:24;1.93;;;1.87;;
9737;SDS011;4908;47.446;13.900;2023-07-29T00:33:51;2.30;;;2.10;;
9737;SDS011;4908;47.446;13.900;2023-07-29T00:36:19;2.10;;;2.00;;
9737;SDS011;4908;47.446;13.900;2023-07-29T00:38:46;2.70;;;2.50;;
9737;SDS011;4908;47.446;13.900;2023-07-29T00:41:14;2.83;;;2.13;;
9737;SDS011;4908;47.446;13.900;2023-07-29T00:43:43;2.20;;;2.10;;
9737;SDS011;4908;47.446;13.900;2023-07-29T00:46:10;2.40;;;2.30;;
9737;SDS011;4908;47.446;13.900;2023-07-29T00:48:39;3.00;;;2.30;;
9737;SDS011;4908;47.446;13.900;2023-07-29T00:51:06;2.17;;;2.03;;
9737;SDS011;4908;47.446;13.900;2023-07-29T00:53:33;2.30;;;2.20;;
9737;SDS011;4908;47.446;13.900;2023-07-29T00:56:01;2.57;;;2.37;;
9737;SDS011;4908;47.446;13.900;2023-07-29T00:58:28;2.50;;;2.40;;
9737;SDS011;4908;47.446;13.900;2023-07-29T01:00:57;2.23;;;2.13;;
9737;SDS011;4908;47.446;13.900;2023-07-29T01:03:24;2.63;;;2.43;;
9737;SDS011;4908;47.446;13.900;2023-07-29T01:05:56;2.80;;;2.60;;
9737;SDS011;4908;47.446;13.900;2023-07-29T01:08:36;2.67;;;2.47;;
9737;SDS011;4908;47.446;13.900;2023-07-29T01:11:12;3.03;;;2.73;;
9737;SDS011;4908;47.446;13.900;2023-07-29T01:13:55;2.47;;;2.30;;
9737;SDS011;4908;47.446;13.900;2023-07-29T01:16:30;2.90;;;2.70;;
9737;SDS011;4908;47.446;13.900;2023-07-29T01:19:03;2.70;;;2.50;;
9737;SDS011;4908;47.446;13.900;2023-07-29T01:21:32;2.73;;;2.27;;
9737;SDS011;4908;47.446;13.900;2023-07-29T01:24:03;2.97;;;2.70;;
9737;SDS011;4908;47.446;13.900;2023-07-29T01:26:30;2.83;;;2.63;;
9737;SDS011;4908;47.446;13.900;2023-07-29T01:28:57;2.37;;;2.27;;
9737;SDS011;4908;47.446;13.900;2023-07-29T01:31:27;3.27;;;3.07;;
9737;SDS011;4908;47.446;13.900;2023-07-29T01:34:01;2.60;;;2.40;;
9737;SDS011;4908;47.446;13.900;2023-07-29T01:36:35;2.53;;;2.43;;
9737;SDS011;4908;47.446;13.900;2023-07-29T01:39:07;3.00;;;2.80;;
9737;SDS011;4908;47.446;13.900;2023-07-29T01:41:36;2.73;;;2.53;;
9737;SDS011;4908;47.446;13.900;2023-07-29T01:44:04;3.20;;;2.73;;
9737;SDS011;4908;47.446;13.900;2023-07-29T01:46:33;2.63;;;2.53;;
9737;SDS011;4908;47.446;13.900;2023-07-29T01:49:00;2.43;;;2.23;;
9737;SDS011;4908;47.446;13.900;2023-07-29T01:51:27;2.97;;;2.77;;
9737;SDS011;4908;47.446;13.900;2023-07-29T01:53:54;3.30;;;3.00;;
9737;SDS011;4908;47.446;13.900;2023-07-29T01:56:25;2.60;;;2.50;;
9737;SDS011;4908;47.446;13.900;2023-07-29T01:58:52;2.97;;;2.77;;
9737;SDS011;4908;47.446;13.900;2023-07-29T02:01:20;2.57;;;2.47;;
9737;SDS011;4908;47.446;13.900;2023-07-29T02:03:47;2.60;;;2.50;;
9737;SDS011;4908;47.446;13.900;2023-07-29T02:06:19;2.50;;;2.40;;
9737;SDS011;4908;47.446;13.900;2023-07-29T02:08:47;2.53;;;2.43;;
9737;SDS011;4908;47.446;13.900;2023-07-29T02:11:14;3.10;;;2.80;;
9737;SDS011;4908;47.446;13.900;2023-07-29T02:13:42;2.70;;;2.60;;
9737;SDS011;4908;47.446;13.900;2023-07-29T02:16:10;2.37;;;2.27;;
9737;SDS011;4908;47.446;13.900;2023-07-29T02:18:37;2.30;;;2.20;;
9737;SDS011;4908;47.446;13.900;2023-07-29T02:21:04;2.53;;;2.40;;
9737;SDS011;4908;47.446;13.900;2023-07-29T02:23:31;2.80;;;2.60;;
9737;SDS011;4908;47.446;13.900;2023-07-29T02:25:58;2.87;;;2.43;;
9737;SDS011;4908;47.446;13.900;2023-07-29T02:28:26;2.60;;;2.50;;
9737;SDS011;4908;47.446;13.900;2023-07-29T02:33:42;2.97;;;2.77;;
9737;SDS011;4908;47.446;13.900;2023-07-29T02:36:09;2.83;;;2.63;;
9737;SDS011;4908;47.446;13.900;2023-07-29T02:38:38;2.80;;;2.70;;
9737;SDS011;4908;47.446;13.900;2023-07-29T02:41:05;2.80;;;2.50;;
9737;SDS011;4908;47.446;13.900;2023-07-29T02:43:34;2.50;;;2.40;;
9737;SDS011;4908;47.446;13.900;2023-07-29T02:46:01;2.40;;;2.30;;
9737;SDS011;4908;47.446;13.900;2023-07-29T02:48:30;2.67;;;2.50;;
9737;SDS011;4908;47.446;13.900;2023-07-29T02:50:57;2.90;;;2.80;;
9737;SDS011;4908;47.446;13.900;2023-07-29T02:53:24;2.67;;;2.47;;
9737;SDS011;4908;47.446;13.900;2023-07-29T02:55:51;2.20;;;2.10;;
9737;SDS011;4908;47.446;13.900;2023-07-29T02:58:19;2.23;;;2.13;;
9737;SDS011;4908;47.446;13.900;2023-07-29T03:00:46;2.47;;;2.27;;
9737;SDS011;4908;47.446;13.900;2023-07-29T03:03:14;2.70;;;2.50;;
9737;SDS011;4908;47.446;13.900;2023-07-29T03:05:42;2.87;;;2.67;;
9737;SDS011;4908;47.446;13.900;2023-07-29T03:08:09;2.63;;;2.53;;
9737;SDS011;4908;47.446;13.900;2023-07-29T03:10:38;3.00;;;2.80;;
9737;SDS011;4908;47.446;13.900;2023-07-29T03:13:05;2.70;;;2.60;;
9737;SDS011;4908;47.446;13.900;2023-07-29T03:15:32;2.77;;;2.57;;
9737;SDS011;4908;47.446;13.900;2023-07-29T03:18:00;2.57;;;2.47;;
9737;SDS011;4908;47.446;13.900;2023-07-29T03:20:27;2.90;;;2.70;;
9737;SDS011;4908;47.446;13.900;2023-07-29T03:22:56;3.07;;;2.87;;
9737;SDS011;4908;47.446;13.900;2023-07-29T03:25:23;2.70;;;2.50;;
9737;SDS011;4908;47.446;13.900;2023-07-29T03:27:50;2.47;;;2.37;;
9737;SDS011;4908;47.446;13.900;2023-07-29T03:30:19;2.97;;;2.67;;
9737;SDS011;4908;47.446;13.900;2023-07-29T03:32:47;2.90;;;2.80;;
9737;SDS011;4908;47.446;13.900;2023-07-29T03:35:16;3.20;;;2.90;;
9737;SDS011;4908;47.446;13.900;2023-07-29T03:37:43;3.03;;;2.87;;
9737;SDS011;4908;47.446;13.900;2023-07-29T03:40:12;2.57;;;2.47;;
9737;SDS011;4908;47.446;13.900;2023-07-29T03:42:39;2.80;;;2.70;;
9737;SDS011;4908;47.446;13.900;2023-07-29T03:45:07;3.10;;;2.90;;
9737;SDS011;4908;47.446;13.900;2023-07-29T03:47:35;2.63;;;2.50;;
9737;SDS011;4908;47.446;13.900;2023-07-29T03:50:02;2.87;;;2.67;;
9737;SDS011;4908;47.446;13.900;2023-07-29T03:52:29;3.30;;;3.00;;
9737;SDS011;4908;47.446;13.900;2023-07-29T03:54:57;3.13;;;3.00;;
9737;SDS011;4908;47.446;13.900;2023-07-29T03:57:25;3.10;;;2.90;;
9737;SDS011;4908;47.446;13.900;2023-07-29T03:59:54;2.60;;;2.40;;
9737;SDS011;4908;47.446;13.900;2023-07-29T04:02:21;2.27;;;2.17;;
9737;SDS011;4908;47.446;13.900;2023-07-29T04:04:48;2.93;;;2.73;;
9737;SDS011;4908;47.446;13.900;2023-07-29T04:07:15;3.43;;;3.13;;
9737;SDS011;4908;47.446;13.900;2023-07-29T04:09:43;2.60;;;2.50;;
9737;SDS011;4908;47.446;13.900;2023-07-29T04:12:10;3.53;;;3.30;;
9737;SDS011;4908;47.446;13.900;2023-07-29T04:14:39;2.70;;;2.60;;
9737;SDS011;4908;47.446;13.900;2023-07-29T04:17:06;2.63;;;2.53;;
9737;SDS011;4908;47.446;13.900;2023-07-29T04:19:34;2.40;;;2.30;;
9737;SDS011;4908;47.446;13.900;2023-07-29T04:22:01;2.63;;;2.40;;
9737;SDS011;4908;47.446;13.900;2023-07-29T04:24:28;2.73;;;2.50;;
9737;SDS011;4908;47.446;13.900;2023-07-29T04:26:55;2.70;;;2.50;;
9737;SDS011;4908;47.446;13.900;2023-07-29T04:29:22;2.57;;;2.47;;
9737;SDS011;4908;47.446;13.900;2023-07-29T04:31:50;2.23;;;2.10;;
9737;SDS011;4908;47.446;13.900;2023-07-29T04:34:18;2.33;;;2.13;;
9737;SDS011;4908;47.446;13.900;2023-07-29T04:36:45;2.40;;;2.10;;
9737;SDS011;4908;47.446;13.900;2023-07-29T04:39:12;2.23;;;2.13;;
9737;SDS011;4908;47.446;13.900;2023-07-29T04:41:39;2.30;;;2.20;;
9737;SDS011;4908;47.446;13.900;2023-07-29T04:44:06;2.00;;;1.90;;
9737;SDS011;4908;47.446;13.900;2023-07-29T04:46:33;2.43;;;2.23;;
9737;SDS011;4908;47.446;13.900;2023-07-29T04:49:01;2.33;;;2.23;;
9737;SDS011;4908;47.446;13.900;2023-07-29T04:51:28;2.37;;;2.27;;
9737;SDS011;4908;47.446;13.900;2023-07-29T04:53:56;2.20;;;2.10;;
9737;SDS011;4908;47.446;13.900;2023-07-29T04:56:24;2.20;;;2.10;;
9737;SDS011;4908;47.446;13.900;2023-07-29T04:58:51;2.80;;;2.20;;
9737;SDS011;4908;47.446;13.900;2023-07-29T05:01:18;2.20;;;2.10;;
9737;SDS011;4908;47.446;13.900;2023-07-29T05:03:45;2.60;;;2.50;;
9737;SDS011;4908;47.446;13.900;2023-07-29T05:06:13;2.00;;;1.90;;
9737;SDS011;4908;47.446;13.900;2023-07-29T05:08:40;2.53;;;2.33;;
9737;SDS011;4908;47.446;13.900;2023-07-29T05:11:07;2.30;;;2.20;;
9737;SDS011;4908;47.446;13.900;2023-07-29T05:13:34;2.60;;;2.40;;
9737;SDS011;4908;47.446;13.900;2023-07-29T05:16:01;2.23;;;2.10;;
9737;SDS011;4908;47.446;13.900;2023-07-29T05:18:28;2.73;;;2.63;;
9737;SDS011;4908;47.446;13.900;2023-07-29T05:20:55;2.40;;;2.20;;
9737;SDS011;4908;47.446;13.900;2023-07-29T05:23:24;6.17;;;2.60;;
9737;SDS011;4908;47.446;13.900;2023-07-29T05:25:51;2.27;;;2.07;;
9737;SDS011;4908;47.446;13.900;2023-07-29T05:28:18;2.63;;;2.53;;
9737;SDS011;4908;47.446;13.900;2023-07-29T05:30:45;3.10;;;2.70;;
9737;SDS011;4908;47.446;13.900;2023-07-29T05:33:12;3.10;;;2.90;;
9737;SDS011;4908;47.446;13.900;2023-07-29T05:35:39;2.80;;;2.70;;
9737;SDS011;4908;47.446;13.900;2023-07-29T05:38:06;2.60;;;2.50;;
9737;SDS011;4908;47.446;13.900;2023-07-29T05:40:35;2.90;;;2.80;;
9737;SDS011;4908;47.446;13.900;2023-07-29T05:43:03;2.10;;;2.00;;
9737;SDS011;4908;47.446;13.900;2023-07-29T05:45:30;2.80;;;2.60;;
9737;SDS011;4908;47.446;13.900;2023-07-29T05:47:57;2.47;;;2.37;;
9737;SDS011;4908;47.446;13.900;2023-07-29T05:50:24;2.30;;;2.20;;
9737;SDS011;4908;47.446;13.900;2023-07-29T05:52:51;2.23;;;2.13;;
9737;SDS011;4908;47.446;13.900;2023-07-29T05:55:18;2.37;;;2.27;;
9737;SDS011;4908;47.446;13.900;2023-07-29T05:57:46;2.20;;;2.10;;
9737;SDS011;4908;47.446;13.900;2023-07-29T06:00:13;2.40;;;2.20;;
9737;SDS011;4908;47.446;13.900;2023-07-29T06:02:40;2.30;;;2.20;;
9737;SDS011;4908;47.446;13.900;2023-07-29T06:05:07;2.30;;;2.20;;
9737;SDS011;4908;47.446;13.900;2023-07-29T06:07:34;2.53;;;2.20;;
9737;SDS011;4908;47.446;13.900;2023-07-29T06:10:01;2.60;;;2.40;;
9737;SDS011;4908;47.446;13.900;2023-07-29T06:12:28;2.60;;;2.40;;
9737;SDS011;4908;47.446;13.900;2023-07-29T06:14:57;2.40;;;2.30;;
9737;SDS011;4908;47.446;13.900;2023-07-29T06:17:24;2.53;;;2.33;;
9737;SDS011;4908;47.446;13.900;2023-07-29T06:19:51;2.10;;;1.90;;
9737;SDS011;4908;47.446;13.900;2023-07-29T06:22:18;2.10;;;2.10;;
9737;SDS011;4908;47.446;13.900;2023-07-29T06:24:45;1.87;;;1.77;;
9737;SDS011;4908;47.446;13.900;2023-07-29T06:27:12;2.40;;;2.30;;
9737;SDS011;4908;47.446;13.900;2023-07-29T06:29:39;2.50;;;2.40;;
9737;SDS011;4908;47.446;13.900;2023-07-29T06:32:07;2.57;;;2.37;;
9737;SDS011;4908;47.446;13.900;2023-07-29T06:34:34;2.10;;;2.00;;
9737;SDS011;4908;47.446;13.900;2023-07-29T06:37:01;2.07;;;1.97;;
9737;SDS011;4908;47.446;13.900;2023-07-29T06:39:28;2.13;;;2.03;;
9737;SDS011;4908;47.446;13.900;2023-07-29T06:41:55;2.10;;;2.00;;
9737;SDS011;4908;47.446;13.900;2023-07-29T06:44:22;2.07;;;1.97;;
9737;SDS011;4908;47.446;13.900;2023-07-29T06:46:49;2.20;;;2.10;;
9737;SDS011;4908;47.446;13.900;2023-07-29T06:49:18;1.90;;;1.80;;
9737;SDS011;4908;47.446;13.900;2023-07-29T06:51:45;2.00;;;1.90;;
9737;SDS011;4908;47.446;13.900;2023-07-29T06:54:12;2.10;;;2.00;;
9737;SDS011;4908;47.446;13.900;2023-07-29T06:56:38;2.40;;;2.13;;
9737;SDS011;4908;47.446;13.900;2023-07-29T06:59:06;2.07;;;1.70;;
9737;SDS011;4908;47.446;13.900;2023-07-29T07:01:33;2.40;;;1.70;;
9737;SDS011;4908;47.446;13.900;2023-07-29T07:04:00;1.93;;;1.83;;
9737;SDS011;4908;47.446;13.900;2023-07-29T07:06:29;1.93;;;1.83;;
9737;SDS011;4908;47.446;13.900;2023-07-29T07:08:56;1.60;;;1.60;;
9737;SDS011;4908;47.446;13.900;2023-07-29T07:11:23;1.83;;;1.80;;
9737;SDS011;4908;47.446;13.900;2023-07-29T07:13:50;1.80;;;1.80;;
9737;SDS011;4908;47.446;13.900;2023-07-29T07:16:17;2.03;;;1.83;;
9737;SDS011;4908;47.446;13.900;2023-07-29T07:18:44;2.10;;;2.00;;
9737;SDS011;4908;47.446;13.900;2023-07-29T07:21:11;2.03;;;1.93;;
9737;SDS011;4908;47.446;13.900;2023-07-29T07:23:39;1.70;;;1.60;;
9737;SDS011;4908;47.446;13.900;2023-07-29T07:26:06;1.90;;;1.80;;
9737;SDS011;4908;47.446;13.900;2023-07-29T07:28:33;2.40;;;2.10;;
9737;SDS011;4908;47.446;13.900;2023-07-29T07:31:00;1.90;;;1.80;;
9737;SDS011;4908;47.446;13.900;2023-07-29T07:33:27;1.63;;;1.53;;
9737;SDS011;4908;47.446;13.900;2023-07-29T07:35:54;1.67;;;1.63;;
9737;SDS011;4908;47.446;13.900;2023-07-29T07:38:21;2.40;;;1.70;;
9737;SDS011;4908;47.446;13.900;2023-07-29T07:40:56;2.10;;;2.00;;
9737;SDS011;4908;47.446;13.900;2023-07-29T07:43:23;1.80;;;1.70;;
9737;SDS011;4908;47.446;13.900;2023-07-29T07:45:51;1.97;;;1.87;;
9737;SDS011;4908;47.446;13.900;2023-07-29T07:48:23;3.30;;;2.23;;
9737;SDS011;4908;47.446;13.900;2023-07-29T07:50:50;3.03;;;2.00;;
9737;SDS011;4908;47.446;13.900;2023-07-29T07:53:17;3.93;;;2.00;;
9737;SDS011;4908;47.446;13.900;2023-07-29T07:55:45;1.90;;;1.80;;
9737;SDS011;4908;47.446;13.900;2023-07-29T07:58:13;1.77;;;1.70;;
9737;SDS011;4908;47.446;13.900;2023-07-29T08:00:40;1.93;;;1.83;;
9737;SDS011;4908;47.446;13.900;2023-07-29T08:03:08;1.70;;;1.60;;
9737;SDS011;4908;47.446;13.900;2023-07-29T08:05:35;2.20;;;1.80;;
9737;SDS011;4908;47.446;13.900;2023-07-29T08:08:02;2.03;;;1.90;;
9737;SDS011;4908;47.446;13.900;2023-07-29T08:10:29;2.20;;;1.70;;
9737;SDS011;4908;47.446;13.900;2023-07-29T08:12:56;1.70;;;1.60;;
9737;SDS011;4908;47.446;13.900;2023-07-29T08:15:24;1.47;;;1.47;;
9737;SDS011;4908;47.446;13.900;2023-07-29T08:17:51;2.30;;;1.90;;
9737;SDS011;4908;47.446;13.900;2023-07-29T08:20:18;1.70;;;1.60;;
9737;SDS011;4908;47.446;13.900;2023-07-29T08:22:45;1.97;;;1.70;;
9737;SDS011;4908;47.446;13.900;2023-07-29T08:25:12;1.57;;;1.40;;
9737;SDS011;4908;47.446;13.900;2023-07-29T08:27:39;2.00;;;1.90;;
9737;SDS011;4908;47.446;13.900;2023-07-29T08:30:07;1.77;;;1.67;;
9737;SDS011;4908;47.446;13.900;2023-07-29T08:32:36;1.90;;;1.80;;
9737;SDS011;4908;47.446;13.900;2023-07-29T08:35:03;1.80;;;1.70;;
9737;SDS011;4908;47.446;13.900;2023-07-29T08:37:30;1.77;;;1.63;;
9737;SDS011;4908;47.446;13.900;2023-07-29T08:39:58;1.67;;;1.67;;
9737;SDS011;4908;47.446;13.900;2023-07-29T08:42:26;1.87;;;1.77;;
9737;SDS011;4908;47.446;13.900;2023-07-29T08:44:57;1.57;;;1.47;;
9737;SDS011;4908;47.446;13.900;2023-07-29T08:47:28;1.60;;;1.50;;
9737;SDS011;4908;47.446;13.900;2023-07-29T08:49:56;1.90;;;1.80;;
9737;SDS011;4908;47.446;13.900;2023-07-29T08:52:24;1.90;;;1.80;;
9737;SDS011;4908;47.446;13.900;2023-07-29T08:54:52;1.90;;;1.80;;
9737;SDS011;4908;47.446;13.900;2023-07-29T08:57:19;2.13;;;1.90;;
9737;SDS011;4908;47.446;13.900;2023-07-29T08:59:48;2.83;;;1.67;;
9737;SDS011;4908;47.446;13.900;2023-07-29T09:02:15;1.67;;;1.57;;
9737;SDS011;4908;47.446;13.900;2023-07-29T09:04:42;2.03;;;1.93;;
9737;SDS011;4908;47.446;13.900;2023-07-29T09:07:10;2.03;;;1.93;;
9737;SDS011;4908;47.446;13.900;2023-07-29T09:09:38;2.03;;;1.93;;
9737;SDS011;4908;47.446;13.900;2023-07-29T09:12:06;1.77;;;1.67;;
9737;SDS011;4908;47.446;13.900;2023-07-29T09:14:33;1.40;;;1.40;;
9737;SDS011;4908;47.446;13.900;2023-07-29T09:17:00;3.20;;;2.00;;
9737;SDS011;4908;47.446;13.900;2023-07-29T09:19:27;2.70;;;1.77;;
9737;SDS011;4908;47.446;13.900;2023-07-29T09:21:54;1.43;;;1.43;;
9737;SDS011;4908;47.446;13.900;2023-07-29T09:24:22;1.77;;;1.67;;
9737;SDS011;4908;47.446;13.900;2023-07-29T09:26:50;1.87;;;1.73;;
9737;SDS011;4908;47.446;13.900;2023-07-29T09:29:21;1.47;;;1.43;;
9737;SDS011;4908;47.446;13.900;2023-07-29T09:31:49;1.90;;;1.30;;
9737;SDS011;4908;47.446;13.900;2023-07-29T09:34:16;1.83;;;1.70;;
9737;SDS011;4908;47.446;13.900;2023-07-29T09:36:43;1.70;;;1.60;;
9737;SDS011;4908;47.446;13.900;2023-07-29T09:39:10;1.80;;;1.47;;
9737;SDS011;4908;47.446;13.900;2023-07-29T09:41:39;1.90;;;1.80;;
9737;SDS011;4908;47.446;13.900;2023-07-29T09:44:07;1.70;;;1.70;;
9737;SDS011;4908;47.446;13.900;2023-07-29T09:46:34;1.47;;;1.47;;
9737;SDS011;4908;47.446;13.900;2023-07-29T09:49:02;1.80;;;1.70;;
9737;SDS011;4908;47.446;13.900;2023-07-29T09:51:29;1.60;;;1.50;;
9737;SDS011;4908;47.446;13.900;2023-07-29T09:53:56;1.80;;;1.70;;
9737;SDS011;4908;47.446;13.900;2023-07-29T09:56:25;1.40;;;1.40;;
9737;SDS011;4908;47.446;13.900;2023-07-29T09:58:54;1.80;;;1.70;;
9737;SDS011;4908;47.446;13.900;2023-07-29T10:01:22;2.10;;;1.90;;
9737;SDS011;4908;47.446;13.900;2023-07-29T10:03:50;2.20;;;2.10;;
9737;SDS011;4908;47.446;13.900;2023-07-29T10:06:17;3.27;;;2.10;;
9737;SDS011;4908;47.446;13.900;2023-07-29T10:08:45;6.27;;;4.47;;
9737;SDS011;4908;47.446;13.900;2023-07-29T10:11:14;2.57;;;2.37;;
9737;SDS011;4908;47.446;13.900;2023-07-29T10:13:41;2.80;;;2.60;;
9737;SDS011;4908;47.446;13.900;2023-07-29T10:16:10;3.43;;;2.67;;
9737;SDS011;4908;47.446;13.900;2023-07-29T10:18:38;2.70;;;2.50;;
9737;SDS011;4908;47.446;13.900;2023-07-29T10:21:06;2.27;;;2.07;;
9737;SDS011;4908;47.446;13.900;2023-07-29T10:23:37;1.90;;;1.73;;
9737;SDS011;4908;47.446;13.900;2023-07-29T10:26:09;1.60;;;1.50;;
9737;SDS011;4908;47.446;13.900;2023-07-29T10:28:39;2.00;;;1.90;;
9737;SDS011;4908;47.446;13.900;2023-07-29T10:31:07;1.83;;;1.73;;
9737;SDS011;4908;47.446;13.900;2023-07-29T10:33:36;3.17;;;2.87;;
9737;SDS011;4908;47.446;13.900;2023-07-29T10:36:04;2.07;;;1.90;;
9737;SDS011;4908;47.446;13.900;2023-07-29T10:38:32;1.87;;;1.77;;
9737;SDS011;4908;47.446;13.900;2023-07-29T10:40:59;1.90;;;1.80;;
9737;SDS011;4908;47.446;13.900;2023-07-29T10:43:26;1.80;;;1.70;;
9737;SDS011;4908;47.446;13.900;2023-07-29T10:45:58;2.13;;;1.90;;
9737;SDS011;4908;47.446;13.900;2023-07-29T10:48:43;1.80;;;1.70;;
9737;SDS011;4908;47.446;13.900;2023-07-29T10:51:28;1.73;;;1.70;;
9737;SDS011;4908;47.446;13.900;2023-07-29T10:53:58;1.80;;;1.70;;
9737;SDS011;4908;47.446;13.900;2023-07-29T10:56:27;1.53;;;1.53;;
9737;SDS011;4908;47.446;13.900;2023-07-29T10:58:56;1.70;;;1.70;;
9737;SDS011;4908;47.446;13.900;2023-07-29T11:01:27;2.93;;;1.63;;
9737;SDS011;4908;47.446;13.900;2023-07-29T11:09:59;1.60;;;1.60;;
9737;SDS011;4908;47.446;13.900;2023-07-29T11:12:37;1.37;;;1.37;;
9737;SDS011;4908;47.446;13.900;2023-07-29T11:15:20;1.70;;;1.70;;
9737;SDS011;4908;47.446;13.900;2023-07-29T11:17:49;1.53;;;1.47;;
9737;SDS011;4908;47.446;13.900;2023-07-29T11:20:19;1.40;;;1.40;;
9737;SDS011;4908;47.446;13.900;2023-07-29T11:22:48;1.93;;;1.60;;
9737;SDS011;4908;47.446;13.900;2023-07-29T11:25:16;1.70;;;1.70;;
9737;SDS011;4908;47.446;13.900;2023-07-29T11:27:44;1.50;;;1.50;;
9737;SDS011;4908;47.446;13.900;2023-07-29T11:30:12;2.00;;;1.80;;
9737;SDS011;4908;47.446;13.900;2023-07-29T11:32:41;2.03;;;1.90;;
9737;SDS011;4908;47.446;13.900;2023-07-29T11:35:10;1.70;;;1.60;;
9737;SDS011;4908;47.446;13.900;2023-07-29T11:37:41;1.87;;;1.77;;
9737;SDS011;4908;47.446;13.900;2023-07-29T11:40:12;2.07;;;1.97;;
9737;SDS011;4908;47.446;13.900;2023-07-29T11:42:40;2.10;;;2.00;;
9737;SDS011;4908;47.446;13.900;2023-07-29T11:45:08;1.70;;;1.70;;
9737;SDS011;4908;47.446;13.900;2023-07-29T11:47:36;1.47;;;1.47;;
9737;SDS011;4908;47.446;13.900;2023-07-29T11:50:03;1.83;;;1.73;;
9737;SDS011;4908;47.446;13.900;2023-07-29T11:52:32;1.80;;;1.70;;
9737;SDS011;4908;47.446;13.900;2023-07-29T11:55:01;1.83;;;1.73;;
9737;SDS011;4908;47.446;13.900;2023-07-29T11:57:29;1.60;;;1.50;;
9737;SDS011;4908;47.446;13.900;2023-07-29T11:59:57;1.60;;;1.60;;
9737;SDS011;4908;47.446;13.900;2023-07-29T12:02:24;1.67;;;1.67;;
9737;SDS011;4908;47.446;13.900;2023-07-29T12:04:52;1.90;;;1.57;;
9737;SDS011;4908;47.446;13.900;2023-07-29T12:07:20;1.50;;;1.50;;
9737;SDS011;4908;47.446;13.900;2023-07-29T12:09:47;1.70;;;1.60;;
9737;SDS011;4908;47.446;13.900;2023-07-29T12:12:17;1.73;;;1.63;;
9737;SDS011;4908;47.446;13.900;2023-07-29T12:14:45;3.33;;;1.60;;
9737;SDS011;4908;47.446;13.900;2023-07-29T12:17:12;1.70;;;1.60;;
9737;SDS011;4908;47.446;13.900;2023-07-29T12:19:40;3.00;;;1.33;;
9737;SDS011;4908;47.446;13.900;2023-07-29T12:22:07;1.67;;;1.58;;
9737;SDS011;4908;47.446;13.900;2023-07-29T12:24:36;1.83;;;1.40;;
9737;SDS011;4908;47.446;13.900;2023-07-29T12:27:05;1.60;;;1.60;;
9737;SDS011;4908;47.446;13.900;2023-07-29T12:29:41;1.85;;;1.70;;
9737;SDS011;4908;47.446;13.900;2023-07-29T12:32:09;1.58;;;1.58;;
9737;SDS011;4908;47.446;13.900;2023-07-29T12:34:37;1.75;;;1.63;;
9737;SDS011;4908;47.446;13.900;2023-07-29T12:37:05;1.85;;;1.75;;
9737;SDS011;4908;47.446;13.900;2023-07-29T12:39:34;1.52;;;1.50;;
9737;SDS011;4908;47.446;13.900;2023-07-29T12:42:06;1.58;;;1.52;;
9737;SDS011;4908;47.446;13.900;2023-07-29T12:44:34;1.60;;;1.58;;
9737;SDS011;4908;47.446;13.900;2023-07-29T12:47:04;1.63;;;1.63;;
9737;SDS011;4908;47.446;13.900;2023-07-29T12:49:33;1.35;;;1.35;;
9737;SDS011;4908;47.446;13.900;2023-07-29T12:52:00;1.55;;;1.50;;
9737;SDS011;4908;47.446;13.900;2023-07-29T12:54:28;1.77;;;1.75;;
9737;SDS011;4908;47.446;13.900;2023-07-29T12:56:54;1.60;;;1.60;;
9737;SDS011;4908;47.446;13.900;2023-07-29T12:59:21;1.60;;;1.50;;
9737;SDS011;4908;47.446;13.900;2023-07-29T13:01:48;2.42;;;2.22;;
9737;SDS011;4908;47.446;13.900;2023-07-29T13:04:17;1.35;;;1.35;;
9737;SDS011;4908;47.446;13.900;2023-07-29T13:06:44;1.60;;;1.60;;
9737;SDS011;4908;47.446;13.900;2023-07-29T13:09:11;1.75;;;1.65;;
9737;SDS011;4908;47.446;13.900;2023-07-29T13:11:38;1.70;;;1.60;;
9737;SDS011;4908;47.446;13.900;2023-07-29T13:14:05;1.48;;;1.48;;
9737;SDS011;4908;47.446;13.900;2023-07-29T13:16:32;1.80;;;1.70;;
9737;SDS011;4908;47.446;13.900;2023-07-29T13:18:59;2.15;;;2.00;;
9737;SDS011;4908;47.446;13.900;2023-07-29T13:21:27;1.92;;;1.58;;
9737;SDS011;4908;47.446;13.900;2023-07-29T13:23:54;1.77;;;1.75;;
9737;SDS011;4908;47.446;13.900;2023-07-29T13:26:20;1.60;;;1.60;;
9737;SDS011;4908;47.446;13.900;2023-07-29T13:28:47;2.75;;;1.80;;
9737;SDS011;4908;47.446;13.900;2023-07-29T13:31:14;3.33;;;1.80;;
9737;SDS011;4908;47.446;13.900;2023-07-29T13:33:41;2.70;;;1.63;;
9737;SDS011;4908;47.446;13.900;2023-07-29T13:36:08;1.65;;;1.60;;
9737;SDS011;4908;47.446;13.900;2023-07-29T13:38:37;1.70;;;1.60;;
9737;SDS011;4908;47.446;13.900;2023-07-29T13:41:04;1.83;;;1.73;;
9737;SDS011;4908;47.446;13.900;2023-07-29T13:43:31;1.63;;;1.63;;
9737;SDS011;4908;47.446;13.900;2023-07-29T13:45:57;1.65;;;1.65;;
9737;SDS011;4908;47.446;13.900;2023-07-29T13:48:25;2.55;;;1.60;;
9737;SDS011;4908;47.446;13.900;2023-07-29T13:50:52;2.58;;;1.65;;
9737;SDS011;4908;47.446;13.900;2023-07-29T13:53:19;1.50;;;1.50;;
9737;SDS011;4908;47.446;13.900;2023-07-29T13:55:47;2.08;;;1.70;;
9737;SDS011;4908;47.446;13.900;2023-07-29T13:58:14;1.95;;;1.73;;
9737;SDS011;4908;47.446;13.900;2023-07-29T14:00:41;4.43;;;1.67;;
9737;SDS011;4908;47.446;13.900;2023-07-29T14:03:08;1.85;;;1.75;;
9737;SDS011;4908;47.446;13.900;2023-07-29T14:05:35;1.50;;;1.50;;
9737;SDS011;4908;47.446;13.900;2023-07-29T14:08:02;1.98;;;1.88;;
9737;SDS011;4908;47.446;13.900;2023-07-29T14:10:29;1.50;;;1.42;;
9737;SDS011;4908;47.446;13.900;2023-07-29T14:12:57;1.50;;;1.50;;
9737;SDS011;4908;47.446;13.900;2023-07-29T14:15:24;1.60;;;1.60;;
9737;SDS011;4908;47.446;13.900;2023-07-29T14:17:51;1.73;;;1.63;;
9737;SDS011;4908;47.446;13.900;2023-07-29T14:20:18;1.55;;;1.45;;
9737;SDS011;4908;47.446;13.900;2023-07-29T14:22:45;1.50;;;1.50;;
9737;SDS011;4908;47.446;13.900;2023-07-29T14:25:13;1.98;;;1.88;;
9737;SDS011;4908;47.446;13.900;2023-07-29T14:27:41;1.65;;;1.65;;
9737;SDS011;4908;47.446;13.900;2023-07-29T14:30:09;2.00;;;1.90;;
9737;SDS011;4908;47.446;13.900;2023-07-29T14:32:37;1.52;;;1.52;;
9737;SDS011;4908;47.446;13.900;2023-07-29T14:35:04;1.85;;;1.75;;
9737;SDS011;4908;47.446;13.900;2023-07-29T14:37:32;2.47;;;2.38;;
9737;SDS011;4908;47.446;13.900;2023-07-29T14:40:00;2.53;;;2.15;;
9737;SDS011;4908;47.446;13.900;2023-07-29T14:42:28;2.17;;;2.10;;
9737;SDS011;4908;47.446;13.900;2023-07-29T14:44:55;2.10;;;2.00;;
9737;SDS011;4908;47.446;13.900;2023-07-29T14:47:23;2.10;;;2.00;;
9737;SDS011;4908;47.446;13.900;2023-07-29T14:49:50;2.00;;;1.90;;
9737;SDS011;4908;47.446;13.900;2023-07-29T14:52:17;2.05;;;1.95;;
9737;SDS011;4908;47.446;13.900;2023-07-29T14:54:44;2.08;;;1.98;;
9737;SDS011;4908;47.446;13.900;2023-07-29T14:57:11;1.80;;;1.77;;
9737;SDS011;4908;47.446;13.900;2023-07-29T14:59:38;1.98;;;1.88;;
9737;SDS011;4908;47.446;13.900;2023-07-29T15:02:05;2.10;;;2.00;;
9737;SDS011;4908;47.446;13.900;2023-07-29T15:04:34;1.70;;;1.50;;
9737;SDS011;4908;47.446;13.900;2023-07-29T15:07:02;2.03;;;1.98;;
9737;SDS011;4908;47.446;13.900;2023-07-29T15:09:29;1.90;;;1.80;;
9737;SDS011;4908;47.446;13.900;2023-07-29T15:11:56;2.47;;;2.22;;
9737;SDS011;4908;47.446;13.900;2023-07-29T15:14:23;1.88;;;1.80;;